LTFC Airport Information

Runway Information
Runway 05 Length 9843 ft width 148 ft
Elevation 2827 ft Threshold 0 ft Heading 50
Runway 23 Length 9843 ft Width 148 ft
Elevation 2835 ft Threshold 0 ft Heading 230
Airport Frequencies
Type GND Name ISPARTA GN Frequency 121.7 MHZ
Type TWR Name ISPARTA TW Frequency 119.2 MHZ
Airport Navaids
Type VOR-DME Name Isparta Frequency 117500 KHZ
Type NDB Name Isparta Frequency 349 KHZ
Airport Weather Information & NOTAM
ADDS - METARS form results

(2256 UTC 19 September 2018)
Data provider http://aviationweather.gov/metar/data/
 
METAR text: LTFC 192220Z 02006KT CAVOK 16/05 Q1017
Conditions at: LTFC (SULEYMAN DEMIREL, TR) observed 2220 UTC 19 September 2018
Temperature: 16.0°C (61°F)
Dewpoint: 5.0°C (41°F) [RH = 48%]
Pressure (altimeter): 30.03 inches Hg (1017.0 mb)
Winds: from the NNE (20 degrees) at 7 MPH (6 knots; 3.1 m/s)
Visibility: 6 or more miles (10+ km)
Ceiling: ceiling and visibility are OK
Clouds: unknown
Weather: no significant weather observed at this time

Forecast for: LTFC (SULEYMAN DEMIREL, TR)
Text: TAF LTFC 191640Z 1918/2018 VRB02KT CAVOK
Forecast period: 1800 UTC 19 September 2018 to 1800 UTC 20 September 2018
Forecast type: FROM: standard forecast or significant change
Winds: variable direction winds at 2 MPH (2 knots; 1.0 m/s)
Visibility: 6 or more miles 10+ km)
Ceiling: unknown
Clouds: missing
Weather: NSW  (no significant weather)